Pentagon, DC (20301)

4:41 PM EDT on October 23, 2014 (GMT -0400)
H Street Corridor - NoMa | Change Station
CLOSE
Current Station
Personal Weather Station
Location: Washington, DC
Elevation: 56 ft
Nearby Weather Stations

Elev 56 ft 38.90 °N, 77.00 °W | Updated 2 seconds ago

Overcast
Overcast
62.2 °F
Feels Like 62.2 °F
N
10.0
Wind Variable Wind from NNW
Gusts 20.0 mph

Today
High -- | Low -- °F
--% Chance of Precip.
Yesterday
High -- | Low -- °F
Precip. -- in
7:25 AM 6:18 PM
Waning Crescent, 0% visible
Pressure 29.87 in
Visibility 10.0 miles
Clouds Overcast 4800 ft
Dew Point 47 °F
Humidity 57%
Rainfall 0.00 in
Snow Depth Not available.
UV 1 out of 12
Pollen 2.50 out of 12
Air Quality Not available.
Flu Activity Sporadic
METAR KDCA 231952Z 31017G26KT 10SM OVC048 18/07 A2987 RMK AO2 PK WND 34033/1914 SLP113 T01830067

More Conditions Fewer Conditions

Pressure 29.87 in
Visibility 10.0 miles
Clouds Overcast 4800 ft
Dew Point 47 °F
Humidity 57%
Rainfall 0.00 in
Snow Depth Not available.
UV 1 out of 12
Pollen 2.50 out of 12
Air Quality Not available.
Flu Activity Sporadic
METAR KDCA 231952Z 31017G26KT 10SM OVC048 18/07 A2987 RMK AO2 PK WND 34033/1914 SLP113 T01830067

More Conditions Fewer Conditions

10-Day Weather Forecast

Almanac

Astronomy

Oct. 23, 2014 Rise Set
Actual Time 7:25 AM EDT 6:18 PM EDT
Civil Twilight 6:58 AM EDT 6:45 PM EDT
Nautical Twilight 6:27 AM EDT 7:16 PM EDT
Astronomical Twilight 5:56 AM EDT 7:47 PM EDT
Moon 7:03 AM EDT 6:18 PM EDT
Length of Visible Light 11h 47m
Length of Day
10h 52m
Tomorrow will be 2m 21s shorter.
Waning Crescent, 0% of the Moon is Illuminated
Today
Waning Crescent
Oct 23
New
Oct 30
First Quarter
Nov 6
Full
Nov 14
Last Quarter

Today's Extremes

State Highs State Lows

Community

WunderPhotos

Upload Photos

1,764,362 photos uploaded!

WunderBlogs® & News

By Dr. Jeff Masters
Director of Meteorology, Weather Underground
By Kari Strenfel
Meteorologist, Weather Underground
By Christopher C. Burt
Weather Historian, Weather Underground
October 23, 2014
October 23, 2014
October 23, 2014

Nearby

Snow Depth

Station Depth Elevation
No new snow has been reported.

Earthquake Activity

City Distance Mag. Time & Date
No recent earthquake activity has been reported nearby.
Minimum magnitude displayed is 2.5.

Coastal Water Temperatures

Place Temperature
Washington, DC 62.1 °F
Baltimore, MD 64.9 °F
Solomons Island, MD 64.0 °F

Nearby Weather Stations